sensor_id;sensor_type;location;lat;lon;timestamp;temperature;humidity
18809;DHT22;9532;54.322;10.116;2022-10-13T00:02:05;18.90;71.70
18809;DHT22;9532;54.322;10.116;2022-10-13T00:04:32;18.90;71.70
18809;DHT22;9532;54.322;10.116;2022-10-13T00:06:59;18.90;71.90
18809;DHT22;9532;54.322;10.116;2022-10-13T00:09:28;18.90;71.70
18809;DHT22;9532;54.322;10.116;2022-10-13T00:11:56;18.90;71.60
18809;DHT22;9532;54.322;10.116;2022-10-13T00:14:23;18.90;71.70
18809;DHT22;9532;54.322;10.116;2022-10-13T00:16:50;18.90;71.80
18809;DHT22;9532;54.322;10.116;2022-10-13T00:19:17;18.90;71.80
18809;DHT22;9532;54.322;10.116;2022-10-13T00:21:44;18.90;71.60
18809;DHT22;9532;54.322;10.116;2022-10-13T00:24:10;18.80;71.50
18809;DHT22;9532;54.322;10.116;2022-10-13T00:26:39;18.90;71.80
18809;DHT22;9532;54.322;10.116;2022-10-13T00:29:06;18.80;71.60
18809;DHT22;9532;54.322;10.116;2022-10-13T00:31:33;18.80;71.50
18809;DHT22;9532;54.322;10.116;2022-10-13T00:34:01;18.80;71.50
18809;DHT22;9532;54.322;10.116;2022-10-13T00:36:28;18.90;71.60
18809;DHT22;9532;54.322;10.116;2022-10-13T00:38:56;18.80;71.50
18809;DHT22;9532;54.322;10.116;2022-10-13T00:41:23;18.80;71.40
18809;DHT22;9532;54.322;10.116;2022-10-13T00:43:56;18.80;71.60
18809;DHT22;9532;54.322;10.116;2022-10-13T00:46:25;18.80;71.40
18809;DHT22;9532;54.322;10.116;2022-10-13T00:48:53;18.80;71.40
18809;DHT22;9532;54.322;10.116;2022-10-13T00:51:24;18.80;71.40
18809;DHT22;9532;54.322;10.116;2022-10-13T00:53:52;18.80;71.40
18809;DHT22;9532;54.322;10.116;2022-10-13T00:56:20;18.80;71.50
18809;DHT22;9532;54.322;10.116;2022-10-13T00:58:49;18.80;71.40
18809;DHT22;9532;54.322;10.116;2022-10-13T01:01:19;18.80;71.40
18809;DHT22;9532;54.322;10.116;2022-10-13T01:03:46;18.80;71.40
18809;DHT22;9532;54.322;10.116;2022-10-13T01:06:13;18.80;71.40
18809;DHT22;9532;54.322;10.116;2022-10-13T01:08:41;18.80;71.40
18809;DHT22;9532;54.322;10.116;2022-10-13T01:11:27;18.80;71.40
18809;DHT22;9532;54.322;10.116;2022-10-13T01:14:02;18.80;71.50
18809;DHT22;9532;54.322;10.116;2022-10-13T01:16:39;18.80;71.40
18809;DHT22;9532;54.322;10.116;2022-10-13T01:19:24;18.80;71.40
18809;DHT22;9532;54.322;10.116;2022-10-13T01:22:05;18.80;71.40
18809;DHT22;9532;54.322;10.116;2022-10-13T01:24:42;18.80;71.80
18809;DHT22;9532;54.322;10.116;2022-10-13T01:30:12;18.70;71.30
18809;DHT22;9532;54.322;10.116;2022-10-13T01:33:05;18.80;71.50
18809;DHT22;9532;54.322;10.116;2022-10-13T01:35:57;18.80;71.40
18809;DHT22;9532;54.322;10.116;2022-10-13T01:38:33;18.70;71.20
18809;DHT22;9532;54.322;10.116;2022-10-13T01:41:09;18.80;71.40
18809;DHT22;9532;54.322;10.116;2022-10-13T01:43:41;18.80;71.40
18809;DHT22;9532;54.322;10.116;2022-10-13T01:46:14;18.80;71.20
18809;DHT22;9532;54.322;10.116;2022-10-13T01:48:43;18.70;71.20
18809;DHT22;9532;54.322;10.116;2022-10-13T01:51:14;18.70;71.30
18809;DHT22;9532;54.322;10.116;2022-10-13T01:53:43;18.70;71.20
18809;DHT22;9532;54.322;10.116;2022-10-13T01:56:10;18.80;71.20
18809;DHT22;9532;54.322;10.116;2022-10-13T01:58:38;18.80;71.20
18809;DHT22;9532;54.322;10.116;2022-10-13T02:01:25;18.80;71.20
18809;DHT22;9532;54.322;10.116;2022-10-13T02:04:03;18.70;72.10
18809;DHT22;9532;54.322;10.116;2022-10-13T02:06:38;18.80;71.30
18809;DHT22;9532;54.322;10.116;2022-10-13T02:09:10;18.80;71.20
18809;DHT22;9532;54.322;10.116;2022-10-13T02:11:48;18.70;71.10
18809;DHT22;9532;54.322;10.116;2022-10-13T02:14:20;18.80;71.40
18809;DHT22;9532;54.322;10.116;2022-10-13T02:16:51;18.80;71.20
18809;DHT22;9532;54.322;10.116;2022-10-13T02:19:20;18.70;71.20
18809;DHT22;9532;54.322;10.116;2022-10-13T02:21:47;18.70;71.20
18809;DHT22;9532;54.322;10.116;2022-10-13T02:24:15;18.70;71.10
18809;DHT22;9532;54.322;10.116;2022-10-13T02:26:42;18.70;71.10
18809;DHT22;9532;54.322;10.116;2022-10-13T02:29:10;18.70;71.10
18809;DHT22;9532;54.322;10.116;2022-10-13T02:31:39;18.70;71.10
18809;DHT22;9532;54.322;10.116;2022-10-13T02:34:08;18.70;71.10
18809;DHT22;9532;54.322;10.116;2022-10-13T02:36:36;18.70;71.20
18809;DHT22;9532;54.322;10.116;2022-10-13T02:39:04;18.70;71.10
18809;DHT22;9532;54.322;10.116;2022-10-13T02:41:32;18.70;71.10
18809;DHT22;9532;54.322;10.116;2022-10-13T02:43:59;18.70;71.10
18809;DHT22;9532;54.322;10.116;2022-10-13T02:46:26;18.70;71.10
18809;DHT22;9532;54.322;10.116;2022-10-13T02:48:53;18.70;71.40
18809;DHT22;9532;54.322;10.116;2022-10-13T02:51:22;18.70;71.10
18809;DHT22;9532;54.322;10.116;2022-10-13T02:53:49;18.70;71.10
18809;DHT22;9532;54.322;10.116;2022-10-13T02:56:16;18.70;71.10
18809;DHT22;9532;54.322;10.116;2022-10-13T02:58:43;18.70;71.20
18809;DHT22;9532;54.322;10.116;2022-10-13T03:01:12;18.70;71.10
18809;DHT22;9532;54.322;10.116;2022-10-13T03:03:40;18.70;71.00
18809;DHT22;9532;54.322;10.116;2022-10-13T03:06:07;18.70;71.10
18809;DHT22;9532;54.322;10.116;2022-10-13T03:08:36;18.70;71.00
18809;DHT22;9532;54.322;10.116;2022-10-13T03:11:03;18.70;71.00
18809;DHT22;9532;54.322;10.116;2022-10-13T03:13:30;18.60;70.90
18809;DHT22;9532;54.322;10.116;2022-10-13T03:15:57;18.70;71.00
18809;DHT22;9532;54.322;10.116;2022-10-13T03:18:24;18.70;71.10
18809;DHT22;9532;54.322;10.116;2022-10-13T03:20:56;18.70;71.10
18809;DHT22;9532;54.322;10.116;2022-10-13T03:23:23;18.60;71.00
18809;DHT22;9532;54.322;10.116;2022-10-13T03:25:52;18.60;71.00
18809;DHT22;9532;54.322;10.116;2022-10-13T03:28:20;18.60;70.90
18809;DHT22;9532;54.322;10.116;2022-10-13T03:30:47;18.60;71.00
18809;DHT22;9532;54.322;10.116;2022-10-13T03:33:15;18.70;71.00
18809;DHT22;9532;54.322;10.116;2022-10-13T03:35:41;18.60;70.90
18809;DHT22;9532;54.322;10.116;2022-10-13T03:38:09;18.60;71.80
18809;DHT22;9532;54.322;10.116;2022-10-13T03:40:35;18.60;71.00
18809;DHT22;9532;54.322;10.116;2022-10-13T03:43:04;18.60;70.90
18809;DHT22;9532;54.322;10.116;2022-10-13T03:45:31;18.60;70.90
18809;DHT22;9532;54.322;10.116;2022-10-13T03:47:58;18.70;71.00
18809;DHT22;9532;54.322;10.116;2022-10-13T03:50:25;18.60;70.90
18809;DHT22;9532;54.322;10.116;2022-10-13T03:52:52;18.70;71.00
18809;DHT22;9532;54.322;10.116;2022-10-13T03:55:19;18.60;71.00
18809;DHT22;9532;54.322;10.116;2022-10-13T03:57:46;18.60;70.90
18809;DHT22;9532;54.322;10.116;2022-10-13T04:00:16;18.60;70.90
18809;DHT22;9532;54.322;10.116;2022-10-13T04:02:44;18.60;71.40
18809;DHT22;9532;54.322;10.116;2022-10-13T04:05:13;18.60;70.90
18809;DHT22;9532;54.322;10.116;2022-10-13T04:07:41;18.60;71.00
18809;DHT22;9532;54.322;10.116;2022-10-13T04:10:08;18.60;70.90
18809;DHT22;9532;54.322;10.116;2022-10-13T04:12:35;18.60;70.90
18809;DHT22;9532;54.322;10.116;2022-10-13T04:15:03;18.60;70.90
18809;DHT22;9532;54.322;10.116;2022-10-13T04:17:32;18.60;70.90
18809;DHT22;9532;54.322;10.116;2022-10-13T04:19:59;18.60;71.00
18809;DHT22;9532;54.322;10.116;2022-10-13T04:22:26;18.60;70.80
18809;DHT22;9532;54.322;10.116;2022-10-13T04:24:53;18.60;71.00
18809;DHT22;9532;54.322;10.116;2022-10-13T04:27:20;18.60;71.80
18809;DHT22;9532;54.322;10.116;2022-10-13T04:29:48;18.60;70.90
18809;DHT22;9532;54.322;10.116;2022-10-13T04:32:15;18.60;70.90
18809;DHT22;9532;54.322;10.116;2022-10-13T04:34:43;18.60;70.90
18809;DHT22;9532;54.322;10.116;2022-10-13T04:37:11;18.60;70.90
18809;DHT22;9532;54.322;10.116;2022-10-13T04:39:38;18.60;70.90
18809;DHT22;9532;54.322;10.116;2022-10-13T04:42:05;18.50;70.80
18809;DHT22;9532;54.322;10.116;2022-10-13T04:44:32;18.60;70.90
18809;DHT22;9532;54.322;10.116;2022-10-13T04:46:59;18.60;70.90
18809;DHT22;9532;54.322;10.116;2022-10-13T04:49:26;18.50;70.80
18809;DHT22;9532;54.322;10.116;2022-10-13T04:51:54;18.60;70.90
18809;DHT22;9532;54.322;10.116;2022-10-13T04:54:21;18.60;70.90
18809;DHT22;9532;54.322;10.116;2022-10-13T04:56:49;18.60;70.90
18809;DHT22;9532;54.322;10.116;2022-10-13T04:59:16;18.60;71.00
18809;DHT22;9532;54.322;10.116;2022-10-13T05:01:43;18.60;71.00
18809;DHT22;9532;54.322;10.116;2022-10-13T05:04:10;18.50;71.10
18809;DHT22;9532;54.322;10.116;2022-10-13T05:06:39;18.60;71.00
18809;DHT22;9532;54.322;10.116;2022-10-13T05:09:09;18.50;71.10
18809;DHT22;9532;54.322;10.116;2022-10-13T05:11:40;18.50;70.90
18809;DHT22;9532;54.322;10.116;2022-10-13T05:14:07;18.50;70.90
18809;DHT22;9532;54.322;10.116;2022-10-13T05:16:35;18.50;70.90
18809;DHT22;9532;54.322;10.116;2022-10-13T05:19:02;18.50;70.90
18809;DHT22;9532;54.322;10.116;2022-10-13T05:21:29;18.50;71.00
18809;DHT22;9532;54.322;10.116;2022-10-13T05:23:57;18.50;70.90
18809;DHT22;9532;54.322;10.116;2022-10-13T05:26:28;18.60;71.10
18809;DHT22;9532;54.322;10.116;2022-10-13T05:28:57;18.50;70.90
18809;DHT22;9532;54.322;10.116;2022-10-13T05:31:26;18.50;70.90
18809;DHT22;9532;54.322;10.116;2022-10-13T05:33:54;18.60;70.90
18809;DHT22;9532;54.322;10.116;2022-10-13T05:36:23;18.60;71.10
18809;DHT22;9532;54.322;10.116;2022-10-13T05:38:51;18.50;70.70
18809;DHT22;9532;54.322;10.116;2022-10-13T05:41:19;18.60;70.70
18809;DHT22;9532;54.322;10.116;2022-10-13T05:43:50;18.50;70.80
18809;DHT22;9532;54.322;10.116;2022-10-13T05:46:19;18.50;70.70
18809;DHT22;9532;54.322;10.116;2022-10-13T05:48:47;18.50;70.70
18809;DHT22;9532;54.322;10.116;2022-10-13T05:51:16;18.50;70.60
18809;DHT22;9532;54.322;10.116;2022-10-13T05:53:47;18.50;70.70
18809;DHT22;9532;54.322;10.116;2022-10-13T05:56:18;18.50;71.50
18809;DHT22;9532;54.322;10.116;2022-10-13T05:58:51;18.50;70.50
18809;DHT22;9532;54.322;10.116;2022-10-13T06:01:22;18.50;70.90
18809;DHT22;9532;54.322;10.116;2022-10-13T06:03:52;18.50;70.60
18809;DHT22;9532;54.322;10.116;2022-10-13T06:06:21;18.50;70.50
18809;DHT22;9532;54.322;10.116;2022-10-13T06:08:50;18.50;70.50
18809;DHT22;9532;54.322;10.116;2022-10-13T06:11:18;18.50;70.40
18809;DHT22;9532;54.322;10.116;2022-10-13T06:13:45;18.50;70.40
18809;DHT22;9532;54.322;10.116;2022-10-13T06:16:14;18.50;70.60
18809;DHT22;9532;54.322;10.116;2022-10-13T06:18:41;18.50;70.60
18809;DHT22;9532;54.322;10.116;2022-10-13T06:21:08;18.50;70.40
18809;DHT22;9532;54.322;10.116;2022-10-13T06:23:34;18.50;70.60
18809;DHT22;9532;54.322;10.116;2022-10-13T06:26:01;18.50;70.50
18809;DHT22;9532;54.322;10.116;2022-10-13T06:28:28;18.50;70.50
18809;DHT22;9532;54.322;10.116;2022-10-13T06:30:56;18.50;70.60
18809;DHT22;9532;54.322;10.116;2022-10-13T06:33:24;18.50;70.60
18809;DHT22;9532;54.322;10.116;2022-10-13T06:35:51;18.50;70.80
18809;DHT22;9532;54.322;10.116;2022-10-13T06:38:19;18.50;70.50
18809;DHT22;9532;54.322;10.116;2022-10-13T06:40:46;18.50;70.60
18809;DHT22;9532;54.322;10.116;2022-10-13T06:43:13;18.50;70.60
18809;DHT22;9532;54.322;10.116;2022-10-13T06:45:40;18.50;70.70
18809;DHT22;9532;54.322;10.116;2022-10-13T06:48:08;18.50;70.60
18809;DHT22;9532;54.322;10.116;2022-10-13T06:50:37;18.50;70.50
18809;DHT22;9532;54.322;10.116;2022-10-13T06:53:04;18.50;70.60
18809;DHT22;9532;54.322;10.116;2022-10-13T06:55:31;18.50;70.50
18809;DHT22;9532;54.322;10.116;2022-10-13T06:57:58;18.50;70.70
18809;DHT22;9532;54.322;10.116;2022-10-13T07:00:25;18.40;70.50
18809;DHT22;9532;54.322;10.116;2022-10-13T07:02:52;18.50;70.70
18809;DHT22;9532;54.322;10.116;2022-10-13T07:05:19;18.50;70.60
18809;DHT22;9532;54.322;10.116;2022-10-13T07:07:50;18.50;70.40
18809;DHT22;9532;54.322;10.116;2022-10-13T07:10:18;18.50;70.40
18809;DHT22;9532;54.322;10.116;2022-10-13T07:12:45;18.50;70.60
18809;DHT22;9532;54.322;10.116;2022-10-13T07:15:13;18.50;71.00
18809;DHT22;9532;54.322;10.116;2022-10-13T07:17:41;18.50;71.10
18809;DHT22;9532;54.322;10.116;2022-10-13T07:20:08;18.50;71.10
18809;DHT22;9532;54.322;10.116;2022-10-13T07:22:36;18.50;71.10
18809;DHT22;9532;54.322;10.116;2022-10-13T07:25:05;18.50;70.90
18809;DHT22;9532;54.322;10.116;2022-10-13T07:27:33;18.50;70.80
18809;DHT22;9532;54.322;10.116;2022-10-13T07:30:00;18.60;70.70
18809;DHT22;9532;54.322;10.116;2022-10-13T07:32:27;18.50;70.80
18809;DHT22;9532;54.322;10.116;2022-10-13T07:34:54;18.60;70.60
18809;DHT22;9532;54.322;10.116;2022-10-13T07:37:21;18.60;70.50
18809;DHT22;9532;54.322;10.116;2022-10-13T07:39:49;18.60;70.60
18809;DHT22;9532;54.322;10.116;2022-10-13T07:42:18;18.60;70.40
18809;DHT22;9532;54.322;10.116;2022-10-13T07:44:45;18.70;70.00
18809;DHT22;9532;54.322;10.116;2022-10-13T07:47:12;18.70;69.90
18809;DHT22;9532;54.322;10.116;2022-10-13T07:49:40;18.80;69.70
18809;DHT22;9532;54.322;10.116;2022-10-13T07:52:06;18.80;69.40
18809;DHT22;9532;54.322;10.116;2022-10-13T07:54:33;18.80;69.40
18809;DHT22;9532;54.322;10.116;2022-10-13T07:57:01;18.80;69.30
18809;DHT22;9532;54.322;10.116;2022-10-13T07:59:31;18.80;69.50
18809;DHT22;9532;54.322;10.116;2022-10-13T08:01:58;18.80;69.60
18809;DHT22;9532;54.322;10.116;2022-10-13T08:04:28;18.80;69.50
18809;DHT22;9532;54.322;10.116;2022-10-13T08:06:55;18.80;69.50
18809;DHT22;9532;54.322;10.116;2022-10-13T08:09:22;18.80;69.50
18809;DHT22;9532;54.322;10.116;2022-10-13T08:11:50;18.70;69.30
18809;DHT22;9532;54.322;10.116;2022-10-13T08:14:16;18.70;69.50
18809;DHT22;9532;54.322;10.116;2022-10-13T08:16:45;18.60;68.00
18809;DHT22;9532;54.322;10.116;2022-10-13T08:19:18;18.00;64.00
18809;DHT22;9532;54.322;10.116;2022-10-13T08:21:46;17.90;66.80
18809;DHT22;9532;54.322;10.116;2022-10-13T08:24:15;18.10;67.60
18809;DHT22;9532;54.322;10.116;2022-10-13T08:26:44;18.20;67.60
18809;DHT22;9532;54.322;10.116;2022-10-13T08:29:11;18.30;68.10
18809;DHT22;9532;54.322;10.116;2022-10-13T08:31:39;18.40;68.10
18809;DHT22;9532;54.322;10.116;2022-10-13T08:34:09;18.40;68.30
18809;DHT22;9532;54.322;10.116;2022-10-13T08:36:36;18.40;68.70
18809;DHT22;9532;54.322;10.116;2022-10-13T08:39:04;18.50;69.00
18809;DHT22;9532;54.322;10.116;2022-10-13T08:41:35;18.50;69.50
18809;DHT22;9532;54.322;10.116;2022-10-13T08:44:04;18.50;69.80
18809;DHT22;9532;54.322;10.116;2022-10-13T08:46:38;18.50;69.90
18809;DHT22;9532;54.322;10.116;2022-10-13T08:49:13;18.60;70.00
18809;DHT22;9532;54.322;10.116;2022-10-13T08:51:41;18.50;70.20
18809;DHT22;9532;54.322;10.116;2022-10-13T08:54:10;18.50;70.20
18809;DHT22;9532;54.322;10.116;2022-10-13T08:56:39;18.50;70.80
18809;DHT22;9532;54.322;10.116;2022-10-13T08:59:12;18.60;70.60
18809;DHT22;9532;54.322;10.116;2022-10-13T09:01:40;18.50;70.70
18809;DHT22;9532;54.322;10.116;2022-10-13T09:04:25;18.60;71.00
18809;DHT22;9532;54.322;10.116;2022-10-13T09:06:55;18.60;71.30
18809;DHT22;9532;54.322;10.116;2022-10-13T09:09:24;18.60;71.40
18809;DHT22;9532;54.322;10.116;2022-10-13T09:11:51;18.70;71.80
18809;DHT22;9532;54.322;10.116;2022-10-13T09:14:21;18.70;72.10
18809;DHT22;9532;54.322;10.116;2022-10-13T09:16:49;18.60;71.80
18809;DHT22;9532;54.322;10.116;2022-10-13T09:19:23;18.70;72.00
18809;DHT22;9532;54.322;10.116;2022-10-13T09:21:54;18.70;71.90
18809;DHT22;9532;54.322;10.116;2022-10-13T09:24:23;18.70;72.50
18809;DHT22;9532;54.322;10.116;2022-10-13T09:27:04;18.80;72.60
18809;DHT22;9532;54.322;10.116;2022-10-13T09:29:31;18.80;72.50
18809;DHT22;9532;54.322;10.116;2022-10-13T09:32:17;18.80;72.30
18809;DHT22;9532;54.322;10.116;2022-10-13T09:34:46;18.70;72.30
18809;DHT22;9532;54.322;10.116;2022-10-13T09:37:19;18.70;72.40
18809;DHT22;9532;54.322;10.116;2022-10-13T09:39:59;18.80;72.90
18809;DHT22;9532;54.322;10.116;2022-10-13T09:42:29;18.90;73.80
18809;DHT22;9532;54.322;10.116;2022-10-13T09:44:58;18.90;73.50
18809;DHT22;9532;54.322;10.116;2022-10-13T09:47:29;18.80;73.80
18809;DHT22;9532;54.322;10.116;2022-10-13T09:50:14;18.90;74.30
18809;DHT22;9532;54.322;10.116;2022-10-13T09:52:44;18.90;74.90
18809;DHT22;9532;54.322;10.116;2022-10-13T09:55:30;18.70;70.70
18809;DHT22;9532;54.322;10.116;2022-10-13T09:58:03;18.40;70.50
18809;DHT22;9532;54.322;10.116;2022-10-13T10:00:32;18.50;70.30
18809;DHT22;9532;54.322;10.116;2022-10-13T10:03:02;18.60;70.60
18809;DHT22;9532;54.322;10.116;2022-10-13T10:05:40;18.60;70.20
18809;DHT22;9532;54.322;10.116;2022-10-13T10:08:14;18.60;70.30
18809;DHT22;9532;54.322;10.116;2022-10-13T10:10:42;18.60;70.70
18809;DHT22;9532;54.322;10.116;2022-10-13T10:13:12;18.70;71.00
18809;DHT22;9532;54.322;10.116;2022-10-13T10:15:49;18.70;71.40
18809;DHT22;9532;54.322;10.116;2022-10-13T10:18:22;18.70;71.80
18809;DHT22;9532;54.322;10.116;2022-10-13T10:20:59;18.80;72.00
18809;DHT22;9532;54.322;10.116;2022-10-13T10:23:38;18.80;71.90
18809;DHT22;9532;54.322;10.116;2022-10-13T10:26:12;18.80;72.60
18809;DHT22;9532;54.322;10.116;2022-10-13T10:28:55;18.80;73.00
18809;DHT22;9532;54.322;10.116;2022-10-13T10:31:45;18.80;73.00
18809;DHT22;9532;54.322;10.116;2022-10-13T10:34:36;18.80;72.90
18809;DHT22;9532;54.322;10.116;2022-10-13T10:37:27;18.80;73.10
18809;DHT22;9532;54.322;10.116;2022-10-13T10:40:08;18.80;72.90
18809;DHT22;9532;54.322;10.116;2022-10-13T10:43:02;18.80;72.80
18809;DHT22;9532;54.322;10.116;2022-10-13T10:45:37;18.80;72.90
18809;DHT22;9532;54.322;10.116;2022-10-13T10:48:29;18.80;72.90
18809;DHT22;9532;54.322;10.116;2022-10-13T10:50:57;18.80;72.90
18809;DHT22;9532;54.322;10.116;2022-10-13T10:53:32;18.80;72.90
18809;DHT22;9532;54.322;10.116;2022-10-13T10:56:06;18.80;73.00
18809;DHT22;9532;54.322;10.116;2022-10-13T10:58:40;18.80;73.30
18809;DHT22;9532;54.322;10.116;2022-10-13T11:01:18;18.70;73.50
18809;DHT22;9532;54.322;10.116;2022-10-13T11:03:54;18.80;73.60
18809;DHT22;9532;54.322;10.116;2022-10-13T11:06:25;18.70;73.60
18809;DHT22;9532;54.322;10.116;2022-10-13T11:09:00;18.70;73.50
18809;DHT22;9532;54.322;10.116;2022-10-13T11:11:32;18.70;73.40
18809;DHT22;9532;54.322;10.116;2022-10-13T11:14:23;18.70;73.30
18809;DHT22;9532;54.322;10.116;2022-10-13T11:17:12;18.70;73.20
18809;DHT22;9532;54.322;10.116;2022-10-13T11:19:41;18.70;73.10
18809;DHT22;9532;54.322;10.116;2022-10-13T11:22:15;18.70;73.10
18809;DHT22;9532;54.322;10.116;2022-10-13T11:24:53;18.70;73.00
18809;DHT22;9532;54.322;10.116;2022-10-13T11:27:27;18.70;73.00
18809;DHT22;9532;54.322;10.116;2022-10-13T11:30:03;18.70;73.00
18809;DHT22;9532;54.322;10.116;2022-10-13T11:32:46;18.70;72.90
18809;DHT22;9532;54.322;10.116;2022-10-13T11:35:25;18.70;72.80
18809;DHT22;9532;54.322;10.116;2022-10-13T11:38:19;18.70;73.10
18809;DHT22;9532;54.322;10.116;2022-10-13T11:41:02;18.70;73.70
18809;DHT22;9532;54.322;10.116;2022-10-13T11:43:41;18.70;73.70
18809;DHT22;9532;54.322;10.116;2022-10-13T11:46:27;18.80;73.50
18809;DHT22;9532;54.322;10.116;2022-10-13T11:52:21;18.80;72.60
18809;DHT22;9532;54.322;10.116;2022-10-13T11:54:54;18.80;72.80
18809;DHT22;9532;54.322;10.116;2022-10-13T11:57:26;18.80;72.80
18809;DHT22;9532;54.322;10.116;2022-10-13T11:59:55;18.80;72.90
18809;DHT22;9532;54.322;10.116;2022-10-13T12:02:24;18.80;72.80
18809;DHT22;9532;54.322;10.116;2022-10-13T12:05:00;18.80;72.50
18809;DHT22;9532;54.322;10.116;2022-10-13T12:07:32;18.80;72.50
18809;DHT22;9532;54.322;10.116;2022-10-13T12:10:03;18.80;72.50
18809;DHT22;9532;54.322;10.116;2022-10-13T12:12:32;18.80;72.60
18809;DHT22;9532;54.322;10.116;2022-10-13T12:14:59;18.80;73.00
18809;DHT22;9532;54.322;10.116;2022-10-13T12:17:29;18.80;74.70
18809;DHT22;9532;54.322;10.116;2022-10-13T12:19:59;18.90;74.50
18809;DHT22;9532;54.322;10.116;2022-10-13T12:22:29;18.90;74.30
18809;DHT22;9532;54.322;10.116;2022-10-13T12:24:58;18.90;74.00
18809;DHT22;9532;54.322;10.116;2022-10-13T12:27:26;18.90;74.40
18809;DHT22;9532;54.322;10.116;2022-10-13T12:29:57;18.90;74.50
18809;DHT22;9532;54.322;10.116;2022-10-13T12:32:26;18.90;74.00
18809;DHT22;9532;54.322;10.116;2022-10-13T12:34:53;18.90;77.70
18809;DHT22;9532;54.322;10.116;2022-10-13T12:37:25;19.00;77.80
18809;DHT22;9532;54.322;10.116;2022-10-13T12:39:55;18.90;76.20
18809;DHT22;9532;54.322;10.116;2022-10-13T12:42:26;18.90;76.40
18809;DHT22;9532;54.322;10.116;2022-10-13T12:44:55;18.90;75.70
18809;DHT22;9532;54.322;10.116;2022-10-13T12:47:37;18.80;75.10
18809;DHT22;9532;54.322;10.116;2022-10-13T12:50:34;18.90;74.80
18809;DHT22;9532;54.322;10.116;2022-10-13T12:53:13;18.90;73.80
18809;DHT22;9532;54.322;10.116;2022-10-13T12:55:51;18.90;73.30
18809;DHT22;9532;54.322;10.116;2022-10-13T12:58:24;18.90;72.90
18809;DHT22;9532;54.322;10.116;2022-10-13T13:01:05;18.90;72.80
18809;DHT22;9532;54.322;10.116;2022-10-13T13:03:35;18.90;72.90
18809;DHT22;9532;54.322;10.116;2022-10-13T13:06:09;18.90;73.00
18809;DHT22;9532;54.322;10.116;2022-10-13T13:08:37;19.00;73.60
18809;DHT22;9532;54.322;10.116;2022-10-13T13:11:18;19.00;73.70
18809;DHT22;9532;54.322;10.116;2022-10-13T13:13:46;19.00;73.80
18809;DHT22;9532;54.322;10.116;2022-10-13T13:16:15;19.00;73.30
18809;DHT22;9532;54.322;10.116;2022-10-13T13:18:43;19.00;73.30
18809;DHT22;9532;54.322;10.116;2022-10-13T13:21:13;19.00;73.30
18809;DHT22;9532;54.322;10.116;2022-10-13T13:23:41;18.90;73.50
18809;DHT22;9532;54.322;10.116;2022-10-13T13:26:13;18.90;73.30
18809;DHT22;9532;54.322;10.116;2022-10-13T13:28:44;18.90;73.20
18809;DHT22;9532;54.322;10.116;2022-10-13T13:31:17;18.90;73.30
18809;DHT22;9532;54.322;10.116;2022-10-13T13:33:44;18.90;73.20
18809;DHT22;9532;54.322;10.116;2022-10-13T13:36:14;18.90;73.20
18809;DHT22;9532;54.322;10.116;2022-10-13T13:38:43;18.90;73.20
18809;DHT22;9532;54.322;10.116;2022-10-13T13:41:13;18.90;73.40
18809;DHT22;9532;54.322;10.116;2022-10-13T13:43:41;18.80;73.30
18809;DHT22;9532;54.322;10.116;2022-10-13T13:46:14;18.80;73.50
18809;DHT22;9532;54.322;10.116;2022-10-13T13:48:42;18.90;73.60
18809;DHT22;9532;54.322;10.116;2022-10-13T13:51:10;18.90;73.80
18809;DHT22;9532;54.322;10.116;2022-10-13T13:53:37;18.90;73.80
18809;DHT22;9532;54.322;10.116;2022-10-13T13:56:05;18.90;73.70
18809;DHT22;9532;54.322;10.116;2022-10-13T13:58:36;18.90;73.60
18809;DHT22;9532;54.322;10.116;2022-10-13T14:01:03;18.90;73.60
18809;DHT22;9532;54.322;10.116;2022-10-13T14:03:30;18.80;74.50
18809;DHT22;9532;54.322;10.116;2022-10-13T14:05:58;18.80;73.50
18809;DHT22;9532;54.322;10.116;2022-10-13T14:08:24;18.80;73.70
18809;DHT22;9532;54.322;10.116;2022-10-13T14:10:52;18.80;73.70
18809;DHT22;9532;54.322;10.116;2022-10-13T14:13:19;18.80;73.70
18809;DHT22;9532;54.322;10.116;2022-10-13T14:15:55;18.80;73.60
18809;DHT22;9532;54.322;10.116;2022-10-13T14:18:22;18.80;73.70
18809;DHT22;9532;54.322;10.116;2022-10-13T14:20:49;18.80;73.70
18809;DHT22;9532;54.322;10.116;2022-10-13T14:23:16;18.80;73.80
18809;DHT22;9532;54.322;10.116;2022-10-13T14:25:44;18.80;73.60
18809;DHT22;9532;54.322;10.116;2022-10-13T14:28:11;18.80;73.70
18809;DHT22;9532;54.322;10.116;2022-10-13T14:30:38;18.70;73.60
18809;DHT22;9532;54.322;10.116;2022-10-13T14:33:07;18.70;73.50
18809;DHT22;9532;54.322;10.116;2022-10-13T14:35:35;18.80;73.60
18809;DHT22;9532;54.322;10.116;2022-10-13T14:38:02;18.70;74.50
18809;DHT22;9532;54.322;10.116;2022-10-13T14:40:29;18.80;73.60
18809;DHT22;9532;54.322;10.116;2022-10-13T14:42:56;18.70;73.50
18809;DHT22;9532;54.322;10.116;2022-10-13T14:45:23;18.70;73.50
18809;DHT22;9532;54.322;10.116;2022-10-13T14:47:51;18.70;73.40
18809;DHT22;9532;54.322;10.116;2022-10-13T14:50:20;18.70;73.40
18809;DHT22;9532;54.322;10.116;2022-10-13T14:52:47;18.70;73.30
18809;DHT22;9532;54.322;10.116;2022-10-13T14:55:14;18.70;73.40
18809;DHT22;9532;54.322;10.116;2022-10-13T14:57:41;18.70;73.30
18809;DHT22;9532;54.322;10.116;2022-10-13T15:00:09;18.70;73.30
18809;DHT22;9532;54.322;10.116;2022-10-13T15:02:36;18.70;73.20
18809;DHT22;9532;54.322;10.116;2022-10-13T15:05:04;18.70;73.30
18809;DHT22;9532;54.322;10.116;2022-10-13T15:07:33;18.70;73.20
18809;DHT22;9532;54.322;10.116;2022-10-13T15:10:00;18.70;73.20
18809;DHT22;9532;54.322;10.116;2022-10-13T15:12:27;18.70;73.20
18809;DHT22;9532;54.322;10.116;2022-10-13T15:14:54;18.70;73.20
18809;DHT22;9532;54.322;10.116;2022-10-13T15:17:21;18.70;73.20
18809;DHT22;9532;54.322;10.116;2022-10-13T15:19:48;18.70;73.10
18809;DHT22;9532;54.322;10.116;2022-10-13T15:22:15;18.70;73.10
18809;DHT22;9532;54.322;10.116;2022-10-13T15:24:44;18.70;73.10
18809;DHT22;9532;54.322;10.116;2022-10-13T15:27:11;18.70;73.10
18809;DHT22;9532;54.322;10.116;2022-10-13T15:29:38;18.60;73.00
18809;DHT22;9532;54.322;10.116;2022-10-13T15:32:07;18.60;73.00
18809;DHT22;9532;54.322;10.116;2022-10-13T15:34:36;18.60;73.00
18809;DHT22;9532;54.322;10.116;2022-10-13T15:37:04;18.60;73.00
18809;DHT22;9532;54.322;10.116;2022-10-13T15:39:31;18.60;73.00
18809;DHT22;9532;54.322;10.116;2022-10-13T15:42:00;18.70;73.10
18809;DHT22;9532;54.322;10.116;2022-10-13T15:44:27;18.60;73.00
18809;DHT22;9532;54.322;10.116;2022-10-13T15:46:56;18.60;73.00
18809;DHT22;9532;54.322;10.116;2022-10-13T15:49:23;18.60;73.00
18809;DHT22;9532;54.322;10.116;2022-10-13T15:51:51;18.60;73.00
18809;DHT22;9532;54.322;10.116;2022-10-13T15:54:20;18.60;73.00
18809;DHT22;9532;54.322;10.116;2022-10-13T15:56:48;18.60;73.00